Lawler, IA (52154)

4:54 PM CDT on October 20, 2014 (GMT -0500)
Decorah Municipal | Change Station
CLOSE
Current Station
Airport
Location: Decorah,
Elevation: 1158 ft
Nearby Weather Stations

Elev 1158 ft 43.28 °N, 91.74 °W | Updated 19 minutes ago

Clear
Clear
63 °F
Feels Like 63 °F
N
8
Wind Variable Wind from NW
Gusts 16 mph

Today
High -- | Low -- °F
--% Chance of Precip.
Yesterday
High -- | Low -- °F
Precip. -- in
7:28 AM 6:17 PM
Waning Crescent, 9% visible
Pressure 29.95 in
Visibility 10.0 miles
Clouds Clear
Dew Point 43 °F
Humidity 48%
Rainfall 0.00 in
Snow Depth Not available.
UV 1 out of 12
Pollen 1.60 out of 12
Air Quality Not available.
Flu Activity Sporadic
METAR KDEH 202135Z AUTO 32007G14KT 300V360 10SM CLR 17/06 A2995 RMK AO2

More Conditions Fewer Conditions

Pressure 29.95 in
Visibility 10.0 miles
Clouds Clear
Dew Point 43 °F
Humidity 48%
Rainfall 0.00 in
Snow Depth Not available.
UV 1 out of 12
Pollen 1.60 out of 12
Air Quality Not available.
Flu Activity Sporadic
METAR KDEH 202135Z AUTO 32007G14KT 300V360 10SM CLR 17/06 A2995 RMK AO2

More Conditions Fewer Conditions

10-Day Weather Forecast

Almanac

Astronomy

Oct. 20, 2014 Rise Set
Actual Time 7:28 AM CDT 6:17 PM CDT
Civil Twilight 6:59 AM CDT 6:46 PM CDT
Nautical Twilight 6:26 AM CDT 7:19 PM CDT
Astronomical Twilight 5:53 AM CDT 7:52 PM CDT
Moon 4:12 AM CDT 4:44 PM CDT
Length of Visible Light 11h 47m
Length of Day
10h 49m
Waning Crescent, 9% of the Moon is Illuminated
Today
Waning Crescent
Oct 23
New
Oct 30
First Quarter
Nov 6
Full
Nov 14
Last Quarter

Today's Extremes

State Highs State Lows

Community

WunderPhotos

Upload Photos

1,763,527 photos uploaded!

WunderBlogs® & News

Nearby

Snow Depth

Station Depth Elevation
No new snow has been reported.

Earthquake Activity

City Distance Mag. Time & Date
No recent earthquake activity has been reported nearby.
Minimum magnitude displayed is 2.5.

Coastal Water Temperatures

Place Temperature
No Stations Reporting

Nearby Weather Stations